首页
METAR-TAF:

METAR-TAF

机场 :

奧倫堡特森特拉尼機場

奥伦堡, 俄罗斯

纬度: 51-46-48N, 经度: 055-07-12E, 海拔: 109米

当前天气观测

该预报发布于23分钟前的20:30 UTC
风速6节,风向东转东北
温度 16°C
湿度 68%
气压 1021 hPa
能见度10公里或以上
1500米以下无云,无积雨云

METAR: UWOO 222030Z 07003MPS CAVOK 16/10 Q1021 R08/65D NOSIG RMK QFE755/1007

时间: 01:53 (20:53 UTC)

预报

该预报发布于1小时和1分钟前的19:52 UTC
预报有效从22日的 21点(UTC)到 23日的 21点(UTC)
风速6节,风向,有时为17节阵风
能见度10公里或以上
散云层高于4000英尺
短暂存在
从 22日的 21点(UTC)到 23日的 03点(UTC)
风速2节,风向多变
能見度: 3100
轻雾
短暂存在
从 23日的 03点(UTC)到 23日的 21点(UTC)
风速10节,风向东转东南,有时为19节阵风

TAF: UWOO 221952Z 2221/2321 08003G09MPS 9999 SCT040 TX30/2310Z TN13/2301Z TEMPO 2221/2303 VRB01MPS 3100 BR TEMPO 2303/2321 12005G10MPS

超过4000个机场的气象观测和天气预报(METAR&TAF报告)。

可查询的气象台以黄色和红色小点在地图上表示。

将鼠标移到小点上方,可查看气象台名称。

然后点击查看天气观测和预报。

如需切换地图:点击带黑十字的绿色按钮放大地图;点击带横线的绿色按钮缩小地图;或者点击绿色箭头查看邻近地区的地图。


METAR-TAF: